sensor_id;sensor_type;location;lat;lon;timestamp;pressure;altitude;pressure_sealevel;temperature;humidity
67697;BME280;54486;51.442;6.778;2023-03-16T00:02:04;101750.13;;;3.84;71.59
67697;BME280;54486;51.442;6.778;2023-03-16T00:04:33;101754.28;;;3.79;71.94
67697;BME280;54486;51.442;6.778;2023-03-16T00:07:08;101749.94;;;3.78;72.11
67697;BME280;54486;51.442;6.778;2023-03-16T00:09:36;101742.84;;;3.72;71.59
67697;BME280;54486;51.442;6.778;2023-03-16T00:12:12;101745.44;;;3.72;71.31
67697;BME280;54486;51.442;6.778;2023-03-16T00:14:43;101741.16;;;3.73;72.07
67697;BME280;54486;51.442;6.778;2023-03-16T00:17:13;101748.94;;;3.74;71.36
67697;BME280;54486;51.442;6.778;2023-03-16T00:19:51;101742.75;;;3.69;71.93
67697;BME280;54486;51.442;6.778;2023-03-16T00:22:26;101749.03;;;3.78;71.42
67697;BME280;54486;51.442;6.778;2023-03-16T00:24:55;101753.41;;;3.80;71.45
67697;BME280;54486;51.442;6.778;2023-03-16T00:27:24;101747.41;;;3.80;71.36
67697;BME280;54486;51.442;6.778;2023-03-16T00:29:52;101742.09;;;3.77;71.51
67697;BME280;54486;51.442;6.778;2023-03-16T00:32:25;101740.59;;;3.82;71.22
67697;BME280;54486;51.442;6.778;2023-03-16T00:34:53;101731.19;;;3.84;71.35
67697;BME280;54486;51.442;6.778;2023-03-16T00:37:21;101718.59;;;3.93;71.33
67697;BME280;54486;51.442;6.778;2023-03-16T00:39:50;101728.66;;;3.85;70.70
67697;BME280;54486;51.442;6.778;2023-03-16T00:42:19;101717.56;;;3.88;70.78
67697;BME280;54486;51.442;6.778;2023-03-16T00:44:46;101727.00;;;3.87;71.15
67697;BME280;54486;51.442;6.778;2023-03-16T00:47:13;101722.03;;;3.92;70.78
67697;BME280;54486;51.442;6.778;2023-03-16T00:49:42;101724.63;;;3.93;70.92
67697;BME280;54486;51.442;6.778;2023-03-16T00:52:11;101718.59;;;3.93;71.18
67697;BME280;54486;51.442;6.778;2023-03-16T00:54:42;101726.44;;;3.96;70.67
67697;BME280;54486;51.442;6.778;2023-03-16T00:57:10;101732.44;;;3.95;71.42
67697;BME280;54486;51.442;6.778;2023-03-16T00:59:38;101730.69;;;3.94;71.46
67697;BME280;54486;51.442;6.778;2023-03-16T01:02:07;101732.44;;;3.95;71.83
67697;BME280;54486;51.442;6.778;2023-03-16T01:04:34;101720.56;;;4.00;71.18
67697;BME280;54486;51.442;6.778;2023-03-16T01:07:03;101712.09;;;4.04;70.74
67697;BME280;54486;51.442;6.778;2023-03-16T01:09:30;101713.19;;;4.10;70.21
67697;BME280;54486;51.442;6.778;2023-03-16T01:12:04;101710.53;;;4.09;70.12
67697;BME280;54486;51.442;6.778;2023-03-16T01:14:32;101707.13;;;4.10;69.94
67697;BME280;54486;51.442;6.778;2023-03-16T01:17:01;101697.81;;;4.15;69.93
67697;BME280;54486;51.442;6.778;2023-03-16T01:19:29;101688.75;;;4.26;68.52
67697;BME280;54486;51.442;6.778;2023-03-16T01:22:00;101693.91;;;4.26;69.13
67697;BME280;54486;51.442;6.778;2023-03-16T01:24:29;101690.31;;;4.21;69.36
67697;BME280;54486;51.442;6.778;2023-03-16T01:26:56;101686.69;;;4.16;69.83
67697;BME280;54486;51.442;6.778;2023-03-16T01:29:24;101686.56;;;4.13;69.41
67697;BME280;54486;51.442;6.778;2023-03-16T01:31:51;101678.13;;;4.17;70.17
67697;BME280;54486;51.442;6.778;2023-03-16T01:34:18;101675.53;;;4.17;69.24
67697;BME280;54486;51.442;6.778;2023-03-16T01:47:22;101656.81;;;4.24;69.00
67697;BME280;54486;51.442;6.778;2023-03-16T01:49:51;101657.66;;;4.23;69.00
67697;BME280;54486;51.442;6.778;2023-03-16T01:52:24;101656.84;;;4.25;69.25
67697;BME280;54486;51.442;6.778;2023-03-16T01:54:57;101649.19;;;4.27;69.41
67697;BME280;54486;51.442;6.778;2023-03-16T01:57:28;101646.69;;;4.30;68.38
67697;BME280;54486;51.442;6.778;2023-03-16T02:00:12;101646.03;;;4.37;68.31
67697;BME280;54486;51.442;6.778;2023-03-16T02:03:05;101643.22;;;4.30;68.62
67697;BME280;54486;51.442;6.778;2023-03-16T02:05:47;101645.94;;;4.34;68.45
67697;BME280;54486;51.442;6.778;2023-03-16T02:08:19;101636.97;;;4.50;68.09
67697;BME280;54486;51.442;6.778;2023-03-16T02:10:50;101635.03;;;4.43;68.42
67697;BME280;54486;51.442;6.778;2023-03-16T02:13:24;101633.34;;;4.43;67.27
67697;BME280;54486;51.442;6.778;2023-03-16T02:15:58;101625.66;;;4.46;68.10
67697;BME280;54486;51.442;6.778;2023-03-16T02:18:28;101633.44;;;4.48;68.20
67697;BME280;54486;51.442;6.778;2023-03-16T02:23:47;101625.50;;;4.40;68.53
67697;BME280;54486;51.442;6.778;2023-03-16T02:32:09;101617.06;;;4.47;68.12
67697;BME280;54486;51.442;6.778;2023-03-16T02:34:37;101610.16;;;4.46;68.84
67697;BME280;54486;51.442;6.778;2023-03-16T02:37:07;101605.75;;;4.44;68.70
67697;BME280;54486;51.442;6.778;2023-03-16T02:39:35;101603.88;;;4.66;67.68
67697;BME280;54486;51.442;6.778;2023-03-16T02:42:03;101604.56;;;4.61;67.78
67697;BME280;54486;51.442;6.778;2023-03-16T02:44:35;101594.75;;;4.49;68.01
67697;BME280;54486;51.442;6.778;2023-03-16T02:47:12;101599.03;;;4.49;67.91
67697;BME280;54486;51.442;6.778;2023-03-16T02:49:44;101586.94;;;4.48;68.34
67697;BME280;54486;51.442;6.778;2023-03-16T02:52:12;101582.75;;;4.51;68.24
67697;BME280;54486;51.442;6.778;2023-03-16T02:54:39;101580.16;;;4.51;68.38
67697;BME280;54486;51.442;6.778;2023-03-16T02:57:06;101589.50;;;4.46;67.97
67697;BME280;54486;51.442;6.778;2023-03-16T02:59:34;101579.16;;;4.46;68.39
67697;BME280;54486;51.442;6.778;2023-03-16T03:02:03;101575.06;;;4.53;68.40
67697;BME280;54486;51.442;6.778;2023-03-16T03:04:31;101582.66;;;4.48;68.76
67697;BME280;54486;51.442;6.778;2023-03-16T03:07:00;101584.25;;;4.43;68.68
67697;BME280;54486;51.442;6.778;2023-03-16T03:09:31;101583.44;;;4.46;68.26
67697;BME280;54486;51.442;6.778;2023-03-16T03:11:59;101582.56;;;4.45;68.33
67697;BME280;54486;51.442;6.778;2023-03-16T03:14:26;101573.13;;;4.47;68.40
67697;BME280;54486;51.442;6.778;2023-03-16T03:16:54;101574.09;;;4.49;68.72
67697;BME280;54486;51.442;6.778;2023-03-16T03:19:22;101563.66;;;4.46;68.59
67697;BME280;54486;51.442;6.778;2023-03-16T03:21:49;101561.97;;;4.48;68.35
67697;BME280;54486;51.442;6.778;2023-03-16T03:24:17;101560.13;;;4.44;68.83
67697;BME280;54486;51.442;6.778;2023-03-16T03:26:44;101570.56;;;4.47;68.95
67697;BME280;54486;51.442;6.778;2023-03-16T03:29:11;101561.97;;;4.48;68.64
67697;BME280;54486;51.442;6.778;2023-03-16T03:31:38;101567.97;;;4.47;69.03
67697;BME280;54486;51.442;6.778;2023-03-16T03:34:06;101560.47;;;4.56;68.28
67697;BME280;54486;51.442;6.778;2023-03-16T03:36:33;101556.16;;;4.55;68.15
67697;BME280;54486;51.442;6.778;2023-03-16T03:39:00;101558.66;;;4.52;68.21
67697;BME280;54486;51.442;6.778;2023-03-16T03:41:31;101552.56;;;4.50;68.12
67697;BME280;54486;51.442;6.778;2023-03-16T03:43:59;101547.47;;;4.53;68.63
67697;BME280;54486;51.442;6.778;2023-03-16T03:46:26;101550.44;;;4.65;67.95
67697;BME280;54486;51.442;6.778;2023-03-16T03:48:54;101555.44;;;4.59;67.94
67697;BME280;54486;51.442;6.778;2023-03-16T03:51:24;101557.34;;;4.66;67.96
67697;BME280;54486;51.442;6.778;2023-03-16T03:53:51;101554.72;;;4.65;67.97
67697;BME280;54486;51.442;6.778;2023-03-16T03:56:18;101552.00;;;4.60;68.33
67697;BME280;54486;51.442;6.778;2023-03-16T03:58:46;101553.75;;;4.61;68.37
67697;BME280;54486;51.442;6.778;2023-03-16T04:01:13;101550.28;;;4.59;68.85
67697;BME280;54486;51.442;6.778;2023-03-16T04:03:40;101552.00;;;4.60;69.03
67697;BME280;54486;51.442;6.778;2023-03-16T04:06:11;101550.22;;;4.58;68.69
67697;BME280;54486;51.442;6.778;2023-03-16T04:08:38;101549.47;;;4.62;68.79
67697;BME280;54486;51.442;6.778;2023-03-16T04:11:05;101540.03;;;4.62;69.20
67697;BME280;54486;51.442;6.778;2023-03-16T04:13:34;101540.78;;;4.60;69.46
67697;BME280;54486;51.442;6.778;2023-03-16T04:16:01;101541.75;;;4.63;69.09
67697;BME280;54486;51.442;6.778;2023-03-16T04:18:28;101540.09;;;4.65;69.17
67697;BME280;54486;51.442;6.778;2023-03-16T04:20:55;101529.94;;;4.71;68.81
67697;BME280;54486;51.442;6.778;2023-03-16T04:23:23;101528.81;;;4.63;68.92
67697;BME280;54486;51.442;6.778;2023-03-16T04:25:51;101532.91;;;4.55;69.36
67697;BME280;54486;51.442;6.778;2023-03-16T04:28:18;101529.47;;;4.56;69.18
67697;BME280;54486;51.442;6.778;2023-03-16T04:30:45;101515.91;;;4.63;68.94
67697;BME280;54486;51.442;6.778;2023-03-16T04:33:12;101518.56;;;4.66;69.04
67697;BME280;54486;51.442;6.778;2023-03-16T04:35:40;101514.91;;;4.58;68.94
67697;BME280;54486;51.442;6.778;2023-03-16T04:38:07;101514.16;;;4.62;68.74
67697;BME280;54486;51.442;6.778;2023-03-16T04:40:37;101517.19;;;4.77;68.41
67697;BME280;54486;51.442;6.778;2023-03-16T04:43:04;101517.84;;;4.70;68.51
67697;BME280;54486;51.442;6.778;2023-03-16T04:45:31;101515.03;;;4.63;68.92
67697;BME280;54486;51.442;6.778;2023-03-16T04:47:58;101508.13;;;4.62;69.31
67697;BME280;54486;51.442;6.778;2023-03-16T04:50:25;101510.72;;;4.63;69.29
67697;BME280;54486;51.442;6.778;2023-03-16T04:52:53;101512.56;;;4.67;69.23
67697;BME280;54486;51.442;6.778;2023-03-16T04:55:20;101516.94;;;4.70;69.25
67697;BME280;54486;51.442;6.778;2023-03-16T04:57:49;101515.09;;;4.66;69.32
67697;BME280;54486;51.442;6.778;2023-03-16T05:00:16;101523.09;;;4.73;68.63
67697;BME280;54486;51.442;6.778;2023-03-16T05:02:47;101514.50;;;4.74;69.01
67697;BME280;54486;51.442;6.778;2023-03-16T05:05:17;101512.72;;;4.72;69.06
67697;BME280;54486;51.442;6.778;2023-03-16T05:07:44;101514.16;;;4.62;69.41
67697;BME280;54486;51.442;6.778;2023-03-16T05:10:14;101510.72;;;4.63;69.42
67697;BME280;54486;51.442;6.778;2023-03-16T05:12:41;101510.72;;;4.63;69.05
67697;BME280;54486;51.442;6.778;2023-03-16T05:15:08;101509.00;;;4.62;69.64
67697;BME280;54486;51.442;6.778;2023-03-16T05:17:36;101507.16;;;4.58;69.71
67697;BME280;54486;51.442;6.778;2023-03-16T05:20:04;101503.03;;;4.65;69.64
67697;BME280;54486;51.442;6.778;2023-03-16T05:22:34;101503.22;;;4.72;69.54
67697;BME280;54486;51.442;6.778;2023-03-16T05:25:01;101502.31;;;4.70;69.03
67697;BME280;54486;51.442;6.778;2023-03-16T05:27:30;101507.31;;;4.64;69.57
67697;BME280;54486;51.442;6.778;2023-03-16T05:29:57;101509.00;;;4.62;70.04
67697;BME280;54486;51.442;6.778;2023-03-16T05:32:24;101502.94;;;4.62;69.80
67697;BME280;54486;51.442;6.778;2023-03-16T05:34:51;101508.91;;;4.59;70.17
67697;BME280;54486;51.442;6.778;2023-03-16T05:37:18;101502.31;;;4.70;69.29
67697;BME280;54486;51.442;6.778;2023-03-16T05:39:46;101505.56;;;4.63;70.08
67697;BME280;54486;51.442;6.778;2023-03-16T05:42:13;101505.47;;;4.60;70.31
67697;BME280;54486;51.442;6.778;2023-03-16T05:44:40;101497.94;;;4.68;70.21
67697;BME280;54486;51.442;6.778;2023-03-16T05:47:08;101513.41;;;4.66;70.64
67697;BME280;54486;51.442;6.778;2023-03-16T05:49:36;101507.50;;;4.70;70.28
67697;BME280;54486;51.442;6.778;2023-03-16T05:52:04;101518.81;;;4.75;69.71
67697;BME280;54486;51.442;6.778;2023-03-16T05:54:32;101506.19;;;4.85;69.81
67697;BME280;54486;51.442;6.778;2023-03-16T05:56:59;101510.25;;;4.76;69.87
67697;BME280;54486;51.442;6.778;2023-03-16T05:59:27;101506.00;;;4.78;70.21
67697;BME280;54486;51.442;6.778;2023-03-16T06:01:54;101505.06;;;4.76;70.01
67697;BME280;54486;51.442;6.778;2023-03-16T06:04:22;101497.41;;;4.79;70.21
67697;BME280;54486;51.442;6.778;2023-03-16T06:06:49;101504.34;;;4.80;70.23
67697;BME280;54486;51.442;6.778;2023-03-16T06:09:16;101513.00;;;4.82;70.51
67697;BME280;54486;51.442;6.778;2023-03-16T06:11:44;101506.19;;;4.85;70.50
67697;BME280;54486;51.442;6.778;2023-03-16T06:14:11;101511.44;;;4.88;70.29
67697;BME280;54486;51.442;6.778;2023-03-16T06:16:38;101516.59;;;4.88;70.68
67697;BME280;54486;51.442;6.778;2023-03-16T06:19:05;101518.34;;;4.89;70.38
67697;BME280;54486;51.442;6.778;2023-03-16T06:21:32;101514.19;;;4.95;70.70
67697;BME280;54486;51.442;6.778;2023-03-16T06:23:59;101512.00;;;5.09;70.05
67697;BME280;54486;51.442;6.778;2023-03-16T06:26:27;101518.84;;;5.07;69.68
67697;BME280;54486;51.442;6.778;2023-03-16T06:28:54;101517.16;;;5.09;69.73
67697;BME280;54486;51.442;6.778;2023-03-16T06:31:21;101517.25;;;5.12;69.35
67697;BME280;54486;51.442;6.778;2023-03-16T06:33:48;101512.06;;;5.12;70.01
67697;BME280;54486;51.442;6.778;2023-03-16T06:36:15;101512.16;;;5.15;69.80
67697;BME280;54486;51.442;6.778;2023-03-16T06:38:43;101513.91;;;5.16;69.72
67697;BME280;54486;51.442;6.778;2023-03-16T06:41:10;101511.34;;;5.16;69.53
67697;BME280;54486;51.442;6.778;2023-03-16T06:43:37;101524.34;;;5.19;69.00
67697;BME280;54486;51.442;6.778;2023-03-16T06:46:05;101521.16;;;5.29;69.08
67697;BME280;54486;51.442;6.778;2023-03-16T06:48:32;101517.78;;;5.33;69.09
67697;BME280;54486;51.442;6.778;2023-03-16T06:51:00;101513.56;;;5.35;68.36
67697;BME280;54486;51.442;6.778;2023-03-16T06:53:27;101508.00;;;5.54;68.22
67697;BME280;54486;51.442;6.778;2023-03-16T06:55:54;101515.00;;;5.58;68.62
67697;BME280;54486;51.442;6.778;2023-03-16T06:58:21;101515.09;;;5.61;68.36
67697;BME280;54486;51.442;6.778;2023-03-16T07:00:49;101511.75;;;5.67;68.15
67697;BME280;54486;51.442;6.778;2023-03-16T07:03:16;101513.19;;;5.89;67.38
67697;BME280;54486;51.442;6.778;2023-03-16T07:05:45;101523.53;;;5.89;67.02
67697;BME280;54486;51.442;6.778;2023-03-16T07:08:12;101515.91;;;5.95;66.97
67697;BME280;54486;51.442;6.778;2023-03-16T07:10:40;101522.09;;;6.01;66.78
67697;BME280;54486;51.442;6.778;2023-03-16T07:13:08;101517.94;;;6.08;65.75
67697;BME280;54486;51.442;6.778;2023-03-16T07:15:35;101528.44;;;6.14;65.49
67697;BME280;54486;51.442;6.778;2023-03-16T07:18:03;101526.66;;;6.13;65.87
67697;BME280;54486;51.442;6.778;2023-03-16T07:20:29;101533.75;;;6.20;65.52
67697;BME280;54486;51.442;6.778;2023-03-16T07:22:58;101530.41;;;6.24;65.58
67697;BME280;54486;51.442;6.778;2023-03-16T07:25:26;101528.69;;;6.26;65.25
67697;BME280;54486;51.442;6.778;2023-03-16T07:27:53;101527.16;;;6.34;65.87
67697;BME280;54486;51.442;6.778;2023-03-16T07:30:20;101526.53;;;6.44;66.12
67697;BME280;54486;51.442;6.778;2023-03-16T07:32:47;101529.31;;;6.53;65.43
67697;BME280;54486;51.442;6.778;2023-03-16T07:35:17;101532.94;;;6.61;65.65
67697;BME280;54486;51.442;6.778;2023-03-16T07:37:44;101531.38;;;6.69;64.83
67697;BME280;54486;51.442;6.778;2023-03-16T07:40:12;101534.00;;;6.71;64.47
67697;BME280;54486;51.442;6.778;2023-03-16T07:42:40;101534.75;;;6.65;64.47
67697;BME280;54486;51.442;6.778;2023-03-16T07:45:07;101540.94;;;6.72;64.15
67697;BME280;54486;51.442;6.778;2023-03-16T07:47:35;101524.56;;;6.74;63.70
67697;BME280;54486;51.442;6.778;2023-03-16T07:50:02;101527.81;;;6.64;64.20
67697;BME280;54486;51.442;6.778;2023-03-16T07:52:32;101538.91;;;6.57;64.22
67697;BME280;54486;51.442;6.778;2023-03-16T07:55:03;101528.44;;;6.54;65.06
67697;BME280;54486;51.442;6.778;2023-03-16T07:57:31;101528.19;;;6.82;63.25
67697;BME280;54486;51.442;6.778;2023-03-16T07:59:58;101530.28;;;6.58;64.79
67697;BME280;54486;51.442;6.778;2023-03-16T08:02:26;101520.88;;;6.63;63.76
67697;BME280;54486;51.442;6.778;2023-03-16T08:04:54;101525.84;;;6.54;64.22
67697;BME280;54486;51.442;6.778;2023-03-16T08:07:21;101517.25;;;6.55;64.84
67697;BME280;54486;51.442;6.778;2023-03-16T08:09:48;101528.44;;;6.53;64.49
67697;BME280;54486;51.442;6.778;2023-03-16T08:12:15;101523.44;;;6.62;64.51
67697;BME280;54486;51.442;6.778;2023-03-16T08:14:42;101523.38;;;6.59;64.98
67697;BME280;54486;51.442;6.778;2023-03-16T08:17:11;101526.97;;;6.65;64.68
67697;BME280;54486;51.442;6.778;2023-03-16T08:19:38;101525.25;;;6.66;64.76
67697;BME280;54486;51.442;6.778;2023-03-16T08:22:05;101520.13;;;6.69;65.02
67697;BME280;54486;51.442;6.778;2023-03-16T08:24:33;101515.75;;;6.66;64.33
67697;BME280;54486;51.442;6.778;2023-03-16T08:27:00;101514.94;;;6.70;64.91
67697;BME280;54486;51.442;6.778;2023-03-16T08:29:27;101515.75;;;6.66;64.92
67697;BME280;54486;51.442;6.778;2023-03-16T08:31:55;101510.75;;;6.75;64.30
67697;BME280;54486;51.442;6.778;2023-03-16T08:34:24;101511.63;;;6.76;64.88
67697;BME280;54486;51.442;6.778;2023-03-16T08:36:52;101500.41;;;6.77;64.03
67697;BME280;54486;51.442;6.778;2023-03-16T08:39:19;101501.38;;;6.83;64.49
67697;BME280;54486;51.442;6.778;2023-03-16T08:41:47;101505.63;;;6.78;64.02
67697;BME280;54486;51.442;6.778;2023-03-16T08:44:14;101517.81;;;6.82;64.98
67697;BME280;54486;51.442;6.778;2023-03-16T08:46:42;101519.91;;;7.02;63.90
67697;BME280;54486;51.442;6.778;2023-03-16T08:49:09;101521.59;;;7.00;63.61
67697;BME280;54486;51.442;6.778;2023-03-16T08:51:37;101515.72;;;7.08;64.26
67697;BME280;54486;51.442;6.778;2023-03-16T08:54:04;101524.47;;;7.15;63.88
67697;BME280;54486;51.442;6.778;2023-03-16T08:56:31;101523.56;;;7.11;63.84
67697;BME280;54486;51.442;6.778;2023-03-16T08:58:57;101519.69;;;7.36;62.38
67697;BME280;54486;51.442;6.778;2023-03-16T09:01:25;101521.16;;;7.22;64.16
67697;BME280;54486;51.442;6.778;2023-03-16T09:03:52;101522.00;;;7.21;64.28
67697;BME280;54486;51.442;6.778;2023-03-16T09:06:21;101527.25;;;7.24;65.13
67697;BME280;54486;51.442;6.778;2023-03-16T09:08:48;101526.44;;;7.28;64.17
67697;BME280;54486;51.442;6.778;2023-03-16T09:11:16;101524.09;;;7.40;64.58
67697;BME280;54486;51.442;6.778;2023-03-16T09:13:44;101517.34;;;7.51;64.05
67697;BME280;54486;51.442;6.778;2023-03-16T09:16:13;101522.72;;;7.63;63.97
67697;BME280;54486;51.442;6.778;2023-03-16T09:18:41;101521.25;;;7.77;63.45
67697;BME280;54486;51.442;6.778;2023-03-16T09:21:10;101514.25;;;7.73;63.03
67697;BME280;54486;51.442;6.778;2023-03-16T09:23:39;101508.13;;;7.70;62.99
67697;BME280;54486;51.442;6.778;2023-03-16T09:26:09;101515.16;;;7.75;64.38
67697;BME280;54486;51.442;6.778;2023-03-16T09:28:39;101504.03;;;7.85;65.58
67697;BME280;54486;51.442;6.778;2023-03-16T09:31:17;101504.25;;;7.97;64.51
67697;BME280;54486;51.442;6.778;2023-03-16T09:33:44;101506.00;;;8.02;64.88
67697;BME280;54486;51.442;6.778;2023-03-16T09:36:13;101507.03;;;8.11;64.28
67697;BME280;54486;51.442;6.778;2023-03-16T09:38:41;101501.09;;;8.20;63.64
67697;BME280;54486;51.442;6.778;2023-03-16T09:44:08;101489.16;;;8.34;62.82
67697;BME280;54486;51.442;6.778;2023-03-16T09:46:41;101489.16;;;8.32;63.25
67697;BME280;54486;51.442;6.778;2023-03-16T09:49:15;101496.25;;;8.44;63.92
67697;BME280;54486;51.442;6.778;2023-03-16T09:57:34;101486.06;;;8.62;61.58
67697;BME280;54486;51.442;6.778;2023-03-16T10:00:25;101472.22;;;8.63;61.29
67697;BME280;54486;51.442;6.778;2023-03-16T10:06:03;101460.28;;;8.80;61.26
67697;BME280;54486;51.442;6.778;2023-03-16T10:11:25;101441.16;;;8.78;60.69
67697;BME280;54486;51.442;6.778;2023-03-16T10:14:45;101436.94;;;8.91;60.53
67697;BME280;54486;51.442;6.778;2023-03-16T10:17:15;101438.66;;;8.89;60.58
67697;BME280;54486;51.442;6.778;2023-03-16T10:19:56;101437.72;;;8.82;60.13
67697;BME280;54486;51.442;6.778;2023-03-16T10:22:29;101444.72;;;8.86;60.17
67697;BME280;54486;51.442;6.778;2023-03-16T10:25:01;101442.13;;;8.86;59.53
67697;BME280;54486;51.442;6.778;2023-03-16T10:27:38;101444.72;;;8.86;60.40
67697;BME280;54486;51.442;6.778;2023-03-16T10:30:21;101447.38;;;8.94;60.38
67697;BME280;54486;51.442;6.778;2023-03-16T10:32:50;101456.88;;;8.90;60.57
67697;BME280;54486;51.442;6.778;2023-03-16T10:35:45;101445.69;;;8.97;60.49
67697;BME280;54486;51.442;6.778;2023-03-16T10:41:30;101434.91;;;9.56;59.63
67697;BME280;54486;51.442;6.778;2023-03-16T10:44:27;101414.25;;;9.89;57.89
67697;BME280;54486;51.442;6.778;2023-03-16T10:47:01;101406.47;;;9.94;58.02
67697;BME280;54486;51.442;6.778;2023-03-16T10:49:43;101400.56;;;10.18;57.51
67697;BME280;54486;51.442;6.778;2023-03-16T10:54:57;101407.53;;;10.25;56.61
67697;BME280;54486;51.442;6.778;2023-03-16T11:00:06;101402.38;;;10.37;56.33
67697;BME280;54486;51.442;6.778;2023-03-16T11:02:48;101405.03;;;10.56;56.79
67697;BME280;54486;51.442;6.778;2023-03-16T11:05:28;101389.44;;;10.78;54.66
67697;BME280;54486;51.442;6.778;2023-03-16T11:08:01;101390.31;;;10.75;55.21
67697;BME280;54486;51.442;6.778;2023-03-16T11:10:44;101383.31;;;10.59;54.49
67697;BME280;54486;51.442;6.778;2023-03-16T11:13:26;101383.31;;;10.62;55.04
67697;BME280;54486;51.442;6.778;2023-03-16T11:18:41;101385.91;;;10.79;54.43
67697;BME280;54486;51.442;6.778;2023-03-16T11:21:21;101377.22;;;10.80;54.48
67697;BME280;54486;51.442;6.778;2023-03-16T11:23:54;101370.25;;;10.79;53.98
67697;BME280;54486;51.442;6.778;2023-03-16T11:26:30;101363.31;;;10.69;54.81
67697;BME280;54486;51.442;6.778;2023-03-16T11:29:04;101369.38;;;10.69;54.60
67697;BME280;54486;51.442;6.778;2023-03-16T11:31:42;101364.16;;;10.63;54.52
67697;BME280;54486;51.442;6.778;2023-03-16T11:34:17;101346.78;;;10.65;54.05
67697;BME280;54486;51.442;6.778;2023-03-16T11:36:55;101343.28;;;10.72;54.65
67697;BME280;54486;51.442;6.778;2023-03-16T11:39:30;101339.81;;;10.76;54.18
67697;BME280;54486;51.442;6.778;2023-03-16T11:42:22;101344.19;;;10.83;53.22
67697;BME280;54486;51.442;6.778;2023-03-16T11:44:54;101343.31;;;10.87;53.54
67697;BME280;54486;51.442;6.778;2023-03-16T12:04:53;101303.16;;;11.70;51.66
67697;BME280;54486;51.442;6.778;2023-03-16T12:10:28;101293.47;;;11.90;50.50
67697;BME280;54486;51.442;6.778;2023-03-16T12:13:03;101282.13;;;11.91;49.28
67697;BME280;54486;51.442;6.778;2023-03-16T12:15:43;101280.41;;;11.93;50.19
67697;BME280;54486;51.442;6.778;2023-03-16T12:18:18;101268.13;;;12.07;50.50
67697;BME280;54486;51.442;6.778;2023-03-16T12:20:56;101280.25;;;12.17;49.72
67697;BME280;54486;51.442;6.778;2023-03-16T12:23:34;101280.19;;;12.30;49.51
67697;BME280;54486;51.442;6.778;2023-03-16T12:26:04;101271.50;;;12.28;50.38
67697;BME280;54486;51.442;6.778;2023-03-16T12:28:31;101264.50;;;12.28;49.58
67697;BME280;54486;51.442;6.778;2023-03-16T12:39:04;101257.59;;;12.16;48.79
67697;BME280;54486;51.442;6.778;2023-03-16T12:50:06;101229.56;;;12.34;49.08
67697;BME280;54486;51.442;6.778;2023-03-16T12:52:42;101233.91;;;12.36;48.23
67697;BME280;54486;51.442;6.778;2023-03-16T12:55:39;101212.13;;;12.33;48.97
67697;BME280;54486;51.442;6.778;2023-03-16T12:58:10;101220.69;;;12.53;48.96
67697;BME280;54486;51.442;6.778;2023-03-16T13:00:39;101212.06;;;12.39;49.11
67697;BME280;54486;51.442;6.778;2023-03-16T13:03:15;101204.22;;;12.39;48.88
67697;BME280;54486;51.442;6.778;2023-03-16T13:05:50;101203.28;;;12.49;48.56
67697;BME280;54486;51.442;6.778;2023-03-16T13:08:19;101201.13;;;12.90;47.94
67697;BME280;54486;51.442;6.778;2023-03-16T13:11:06;101195.16;;;12.78;48.65
67697;BME280;54486;51.442;6.778;2023-03-16T13:13:51;101192.25;;;13.06;47.67
67697;BME280;54486;51.442;6.778;2023-03-16T13:16:28;101186.09;;;13.12;47.32
67697;BME280;54486;51.442;6.778;2023-03-16T13:18:56;101179.94;;;13.17;48.20
67697;BME280;54486;51.442;6.778;2023-03-16T13:21:39;101172.81;;;13.29;48.10
67697;BME280;54486;51.442;6.778;2023-03-16T13:27:20;101177.88;;;13.41;46.88
67697;BME280;54486;51.442;6.778;2023-03-16T13:29:54;101180.44;;;13.47;46.65
67697;BME280;54486;51.442;6.778;2023-03-16T13:32:23;101175.31;;;13.39;46.63
67697;BME280;54486;51.442;6.778;2023-03-16T13:34:52;101170.78;;;13.52;46.81
67697;BME280;54486;51.442;6.778;2023-03-16T13:37:23;101168.97;;;13.54;46.89
67697;BME280;54486;51.442;6.778;2023-03-16T13:39:59;101160.28;;;13.52;46.64
67697;BME280;54486;51.442;6.778;2023-03-16T13:42:32;101171.56;;;13.57;45.72
67697;BME280;54486;51.442;6.778;2023-03-16T13:45:11;101158.91;;;13.86;46.12
67697;BME280;54486;51.442;6.778;2023-03-16T13:47:42;101152.41;;;14.11;44.60
67697;BME280;54486;51.442;6.778;2023-03-16T13:50:12;101145.09;;;14.31;43.50
67697;BME280;54486;51.442;6.778;2023-03-16T13:52:41;101134.16;;;14.57;43.89
67697;BME280;54486;51.442;6.778;2023-03-16T13:55:26;101127.50;;;14.86;43.69
67697;BME280;54486;51.442;6.778;2023-03-16T13:57:58;101123.09;;;15.29;42.57
67697;BME280;54486;51.442;6.778;2023-03-16T14:00:29;101118.22;;;15.54;42.95
67697;BME280;54486;51.442;6.778;2023-03-16T14:02:59;101100.03;;;16.17;41.35
67697;BME280;54486;51.442;6.778;2023-03-16T14:05:33;101097.22;;;16.58;39.39
67697;BME280;54486;51.442;6.778;2023-03-16T14:08:01;101098.22;;;16.85;39.98
67697;BME280;54486;51.442;6.778;2023-03-16T14:10:36;101095.34;;;16.94;38.50
67697;BME280;54486;51.442;6.778;2023-03-16T14:13:20;101081.34;;;17.21;38.48
67697;BME280;54486;51.442;6.778;2023-03-16T14:15:47;101079.91;;;17.40;38.73
67697;BME280;54486;51.442;6.778;2023-03-16T14:18:17;101081.53;;;17.15;37.68
67697;BME280;54486;51.442;6.778;2023-03-16T14:20:54;101081.22;;;17.26;37.95
67697;BME280;54486;51.442;6.778;2023-03-16T14:23:34;101066.72;;;17.68;36.92
67697;BME280;54486;51.442;6.778;2023-03-16T14:26:10;101066.00;;;17.91;36.57
67697;BME280;54486;51.442;6.778;2023-03-16T14:29:04;101061.81;;;18.10;35.96
67697;BME280;54486;51.442;6.778;2023-03-16T14:31:37;101059.28;;;18.33;36.22
67697;BME280;54486;51.442;6.778;2023-03-16T14:34:19;101059.91;;;18.15;35.94
67697;BME280;54486;51.442;6.778;2023-03-16T14:36:47;101060.06;;;17.57;36.56
67697;BME280;54486;51.442;6.778;2023-03-16T14:39:19;101052.19;;;17.83;36.76
67697;BME280;54486;51.442;6.778;2023-03-16T14:41:48;101054.66;;;17.87;36.33